Essington, United Kingdom
Current Conditions -  °F | °C
As of 1:50 PM on Friday 24 Oct 2014 (Local Time) from EGBB Reporting Station
Broken Clouds Broken Clouds  
Wind Chill: 61°   Ceiling: 1800
Heat Index: 61°   Visibility: 6mi
Dew Point: 55°   Wind: 9mph
Humidity: 82%   Direction: 190°S
Pressure: 29.88"   Gusts: NA
Location:  52.63°N, 2.06°W
Report Text: EGBB 241250Z 19008KT 150V220 9999 SCT012 BKN018 16/13 Q1012
Loading
Personal Weather Stations






























Interactive Weather Map New forecast layout! Learn more

10-Day Weather Forecast

Advertisements
Track Severe Weather on mobile